Time;durP1;ratioP1;P1;durP2;ratioP2;P2;SDS_P1;SDS_P2;PMS_P1;PMS_P2;Temp;Humidity;BMP_temperature;BMP_pressure;BME280_temperature;BME280_humidity;BME280_pressure;Samples;Min_cycle;Max_cycle;Signal;HPM_P1;HPM_P2
2022/08/27 00:02:04;;;;;;;8.52;5.28;;;;;;;20.77;81.66;99076.56;5073498;28;20109;-79
2022/08/27 00:04:30;;;;;;;9.82;6.05;;;;;;;20.78;82.04;99102.09;5073570;28;20036;-79
2022/08/27 00:06:55;;;;;;;12.90;5.72;;;;;;;20.70;82.74;99088.75;5089323;28;20021;-79
2022/08/27 00:09:21;;;;;;;11.35;6.28;;;;;;;20.61;82.96;99079.91;5073546;28;20378;-79
2022/08/27 00:11:47;;;;;;;9.70;6.18;;;;;;;20.59;83.69;99084.50;5073492;28;20038;-79
2022/08/27 00:14:13;;;;;;;8.82;5.45;;;;;;;20.56;83.76;99082.16;5071997;28;20028;-78
2022/08/27 00:16:39;;;;;;;12.95;6.22;;;;;;;20.43;84.26;99074.53;5073447;28;20589;-79
2022/08/27 00:19:05;;;;;;;10.23;6.20;;;;;;;20.43;84.72;99093.06;5073152;28;20103;-79
2022/08/27 00:21:31;;;;;;;10.52;5.90;;;;;;;20.31;84.86;99068.63;5073351;28;20108;-79
2022/08/27 00:23:57;;;;;;;12.13;5.63;;;;;;;20.27;85.65;99069.06;5073295;28;20412;-79
2022/08/27 00:26:23;;;;;;;7.13;5.57;;;;;;;20.26;85.63;99078.81;5073082;28;20025;-79
2022/08/27 00:28:49;;;;;;;11.73;6.60;;;;;;;20.26;85.83;99083.25;5073314;28;20033;-79
2022/08/27 00:31:14;;;;;;;7.88;5.90;;;;;;;20.19;85.80;99078.56;5072764;28;20386;-79
2022/08/27 00:33:40;;;;;;;9.20;5.97;;;;;;;20.14;85.81;99077.31;5072932;28;20055;-79
2022/08/27 00:36:06;;;;;;;7.38;6.53;;;;;;;20.15;85.91;99090.41;5072959;28;20043;-79
2022/08/27 00:38:32;;;;;;;11.85;6.10;;;;;;;20.15;85.27;99085.13;5072867;28;20393;-79
2022/08/27 00:40:59;;;;;;;10.77;6.38;;;;;;;20.12;85.90;99087.22;5073020;28;20071;-78
2022/08/27 00:43:30;;;;;;;12.25;6.00;;;;;;;20.20;85.72;99100.56;5072829;28;20032;-78
2022/08/27 00:46:03;;;;;;;11.48;6.60;;;;;;;20.14;86.31;99087.91;5072832;28;20116;-79
2022/08/27 00:48:33;;;;;;;12.68;7.07;;;;;;;20.20;84.78;99097.91;5072674;28;20032;-79
2022/08/27 00:50:59;;;;;;;7.93;6.60;;;;;;;20.19;84.47;99093.59;5072902;28;20037;-79
2022/08/27 00:53:28;;;;;;;12.02;6.72;;;;;;;20.13;84.76;99091.53;5072713;28;20029;-79
2022/08/27 00:56:11;;;;;;;10.77;6.85;;;;;;;20.08;84.37;99080.56;5072672;28;20040;-78
2022/08/27 00:58:39;;;;;;;9.20;6.78;;;;;;;20.09;84.54;99082.22;5072830;28;20024;-79
2022/08/27 01:01:09;;;;;;;11.98;6.53;;;;;;;20.01;85.01;99071.53;5072551;28;20063;-78
2022/08/27 01:03:35;;;;;;;9.73;6.57;;;;;;;20.02;85.22;99078.53;5072700;28;20489;-79
2022/08/27 01:06:03;;;;;;;10.90;6.97;;;;;;;19.95;85.86;99080.91;5072531;28;20161;-79
2022/08/27 01:08:33;;;;;;;8.80;6.63;;;;;;;19.96;86.48;99092.31;5072405;28;20487;-78
2022/08/27 01:10:59;;;;;;;7.68;6.82;;;;;;;19.84;86.79;99070.50;5072377;28;20025;-79
2022/08/27 01:13:30;;;;;;;10.25;6.97;;;;;;;19.86;86.80;99085.25;5072093;28;20500;-79
2022/08/27 01:15:57;;;;;;;;;;;;;;;19.90;86.52;99097.19;5072847;28;20059;-79
2022/08/27 01:18:28;;;;;;;10.98;6.68;;;;;;;19.83;86.15;99076.78;5072121;28;19919;-79
2022/08/27 01:21:08;;;;;;;12.65;7.00;;;;;;;19.82;87.25;99078.59;5072130;28;20565;-79
2022/08/27 01:23:36;;;;;;;8.82;6.80;;;;;;;19.81;88.03;99087.50;5072500;28;20020;-79
2022/08/27 01:26:05;;;;;;;11.77;7.03;;;;;;;19.73;87.65;99075.97;5072107;28;20036;-78
2022/08/27 01:28:32;;;;;;;10.55;6.75;;;;;;;19.72;87.49;99076.94;5072046;28;20562;-79
2022/08/27 01:30:57;;;;;;;10.13;7.00;;;;;;;19.75;87.01;99074.00;5071960;28;20179;-79
2022/08/27 01:33:22;;;;;;;11.40;6.93;;;;;;;19.76;87.09;99084.44;5071738;28;20021;-79
2022/08/27 01:35:49;;;;;;;11.07;7.22;;;;;;;19.74;88.32;99083.75;5072058;28;20454;-79
2022/08/27 01:38:16;;;;;;;10.40;6.95;;;;;;;19.74;87.64;99080.28;5071714;28;20079;-79
2022/08/27 01:40:42;;;;;;;9.60;6.32;;;;;;;19.68;88.00;99076.41;5072164;28;20040;-79
2022/08/27 01:43:08;;;;;;;9.00;8.02;;;;;;;19.66;88.82;99076.53;5071770;28;20119;-79
2022/08/27 01:45:36;;;;;;;13.82;7.22;;;;;;;19.55;88.25;99071.41;5072085;28;20024;-78
2022/08/27 01:48:03;;;;;;;12.35;7.45;;;;;;;19.53;88.54;99075.16;5071979;28;20066;-79
2022/08/27 01:50:34;;;;;;;12.68;7.43;;;;;;;19.53;88.48;99061.94;5071646;28;20090;-79
2022/08/27 01:53:08;;;;;;;14.02;7.80;;;;;;;19.44;88.51;99056.53;5071765;28;20024;-79
2022/08/27 01:55:34;;;;;;;14.48;8.35;;;;;;;19.55;88.32;99075.84;5071933;28;20108;-79
2022/08/27 01:57:59;;;;;;;8.65;7.25;;;;;;;19.46;88.15;99053.75;5071947;28;20020;-79
2022/08/27 02:00:32;;;;;;;12.10;7.40;;;;;;;19.51;88.66;99077.09;5072006;28;20484;-79
2022/08/27 02:02:57;;;;;;;11.23;6.93;;;;;;;19.43;88.59;99064.63;5049251;28;20521;-79
2022/08/27 02:05:23;;;;;;;10.45;7.55;;;;;;;19.38;88.17;99064.19;5049350;28;20132;-79
2022/08/27 02:07:49;;;;;;;10.10;7.45;;;;;;;19.41;88.28;99074.47;5033128;28;20513;-78
2022/08/27 02:10:19;;;;;;;9.82;7.28;;;;;;;19.31;88.82;99065.75;5049837;28;20205;-79
2022/08/27 02:12:44;;;;;;;10.70;7.75;;;;;;;19.25;89.03;99063.66;5049913;28;20124;-79
2022/08/27 02:15:11;;;;;;;10.75;7.40;;;;;;;19.20;89.10;99054.34;5050406;28;20088;-79
2022/08/27 02:17:37;;;;;;;12.13;7.70;;;;;;;19.21;90.00;99057.81;5052876;28;20076;-79
2022/08/27 02:20:04;;;;;;;12.40;7.60;;;;;;;19.17;91.04;99065.22;5058400;28;20559;-79
2022/08/27 02:22:30;;;;;;;14.65;7.88;;;;;;;19.07;90.60;99063.53;5059090;28;20035;-78
2022/08/27 02:24:55;;;;;;;11.10;7.40;;;;;;;19.04;90.25;99054.09;5058235;28;20113;-79
2022/08/27 02:27:20;;;;;;;13.05;7.80;;;;;;;19.07;90.23;99059.09;5054090;28;20040;-79
2022/08/27 02:29:49;;;;;;;9.15;7.75;;;;;;;19.12;90.73;99064.78;5053150;28;20468;-79
2022/08/27 02:32:15;;;;;;;11.23;7.05;;;;;;;19.09;89.80;99065.06;5036033;28;20033;-79
2022/08/27 02:34:40;;;;;;;9.32;7.93;;;;;;;19.07;89.19;99053.81;5070871;28;20036;-79
2022/08/27 02:37:06;;;;;;;14.88;8.15;;;;;;;19.17;87.85;99067.84;5075422;28;20051;-78
2022/08/27 02:39:32;;;;;;;13.95;7.88;;;;;;;19.23;87.09;99063.81;5075308;28;20103;-79
2022/08/27 02:41:58;;;;;;;10.65;7.65;;;;;;;19.26;86.22;99065.34;5075153;28;20115;-79
2022/08/27 02:44:23;;;;;;;10.85;7.35;;;;;;;19.20;87.65;99062.28;5073713;28;20473;-79
2022/08/27 02:46:49;;;;;;;11.95;7.22;;;;;;;19.24;88.07;99070.75;5075417;28;20078;-79
2022/08/27 02:49:14;;;;;;;10.95;7.63;;;;;;;19.21;87.85;99071.03;5074831;28;20086;-79
2022/08/27 02:51:40;;;;;;;14.90;8.02;;;;;;;19.13;87.87;99068.25;5075283;28;20499;-78
2022/08/27 02:54:06;;;;;;;10.43;7.43;;;;;;;19.14;88.69;99076.03;5075121;28;20103;-79
2022/08/27 02:56:31;;;;;;;11.00;8.15;;;;;;;19.04;88.43;99062.00;5074854;28;20078;-78
2022/08/27 02:58:58;;;;;;;9.93;7.35;;;;;;;19.08;88.29;99081.88;5074904;28;20455;-79
2022/08/27 03:01:23;;;;;;;12.20;8.45;;;;;;;19.01;88.70;99074.66;5074657;28;20028;-78
2022/08/27 03:03:48;;;;;;;12.00;7.53;;;;;;;18.97;89.16;99074.09;5073385;28;20527;-79
2022/08/27 03:06:14;;;;;;;13.70;7.85;;;;;;;18.90;88.92;99065.91;5074679;28;20081;-79
2022/08/27 03:08:39;;;;;;;11.88;7.57;;;;;;;18.87;88.81;99070.63;5074762;28;20074;-79
2022/08/27 03:11:07;;;;;;;12.07;9.05;;;;;;;18.86;89.43;99072.44;5074755;28;20044;-79
2022/08/27 03:13:36;;;;;;;10.40;7.50;;;;;;;18.81;89.81;99077.28;5074431;28;20036;-79
2022/08/27 03:16:02;;;;;;;9.70;7.57;;;;;;;18.78;90.73;99087.28;5074588;28;20025;-79
2022/08/27 03:18:27;;;;;;;16.25;8.50;;;;;;;18.78;90.71;99093.38;5074281;28;20389;-79
2022/08/27 03:20:55;;;;;;;10.32;8.05;;;;;;;18.70;90.85;99086.16;5074909;28;20075;-79
2022/08/27 03:23:24;;;;;;;14.07;8.82;;;;;;;18.60;91.86;99081.81;5074603;28;20059;-79
2022/08/27 03:25:52;;;;;;;13.23;9.02;;;;;;;18.63;91.54;99094.75;5074577;28;20431;-79
2022/08/27 03:28:21;;;;;;;11.68;7.85;;;;;;;18.50;92.36;99086.22;5072913;28;20073;-78
2022/08/27 03:30:48;;;;;;;14.88;8.20;;;;;;;18.50;92.39;99099.41;5074177;28;20052;-79
2022/08/27 03:33:14;;;;;;;11.20;7.95;;;;;;;18.43;93.13;99093.84;5074143;28;20107;-79
2022/08/27 03:35:39;;;;;;;10.45;7.97;;;;;;;18.38;93.07;99103.97;5074141;28;20158;-79
2022/08/27 03:38:05;;;;;;;10.85;8.45;;;;;;;18.38;93.23;99104.81;5074296;28;20028;-79
2022/08/27 03:40:31;;;;;;;15.60;8.52;;;;;;;18.34;94.32;99111.31;5074085;28;20119;-79
2022/08/27 03:42:56;;;;;;;13.52;9.05;;;;;;;18.26;94.62;99105.03;5072943;28;20532;-79
2022/08/27 03:45:21;;;;;;;15.52;8.18;;;;;;;18.23;95.36;99103.50;5072451;28;20021;-79
2022/08/27 03:47:47;;;;;;;13.00;8.65;;;;;;;18.17;95.33;99104.03;5074230;28;20024;-78
2022/08/27 03:50:12;;;;;;;10.98;7.88;;;;;;;18.16;95.85;99110.25;5074211;28;20058;-79
2022/08/27 03:52:37;;;;;;;12.52;8.48;;;;;;;18.14;95.85;99117.47;5074126;28;20033;-78
2022/08/27 03:55:06;;;;;;;11.82;8.50;;;;;;;18.07;96.49;99111.06;5073983;28;20036;-78
2022/08/27 03:57:32;;;;;;;9.55;8.10;;;;;;;18.13;96.14;99127.19;5073638;28;20111;-78
2022/08/27 03:59:58;;;;;;;10.50;7.93;;;;;;;18.11;95.82;99108.03;5073757;28;20074;-79
2022/08/27 04:02:24;;;;;;;15.40;8.95;;;;;;;18.16;95.74;99128.72;5073897;28;20024;-78
2022/08/27 04:04:50;;;;;;;13.48;9.18;;;;;;;18.14;95.40;99128.03;5074031;28;20493;-78
2022/08/27 04:07:15;;;;;;;12.60;9.40;;;;;;;18.13;95.00;99137.72;5073675;28;20021;-78
2022/08/27 04:09:41;;;;;;;12.90;8.55;;;;;;;18.20;95.21;99157.34;5073824;28;20032;-78
2022/08/27 04:12:06;;;;;;;16.90;8.88;;;;;;;18.30;95.44;99156.53;5073666;28;20017;-78
2022/08/27 04:14:33;;;;;;;18.45;9.25;;;;;;;18.24;95.90;99135.97;5073264;28;20032;-78
2022/08/27 04:16:59;;;;;;;11.05;8.00;;;;;;;18.19;96.40;99134.56;5073632;28;20025;-79
2022/08/27 04:19:26;;;;;;;10.52;7.85;;;;;;;18.22;96.79;99148.44;5088948;28;20143;-78
2022/08/27 04:21:52;;;;;;;10.57;8.68;;;;;;;18.24;97.14;99164.94;5073365;28;20386;-79
2022/08/27 04:24:17;;;;;;;16.42;9.10;;;;;;;18.19;96.95;99160.09;5073486;28;20036;-78
2022/08/27 04:26:44;;;;;;;10.20;7.93;;;;;;;18.23;97.96;99145.66;5073380;28;20029;-78
2022/08/27 04:29:10;;;;;;;14.27;8.90;;;;;;;18.18;97.94;99135.53;5073075;28;20021;-78
2022/08/27 04:31:35;;;;;;;17.10;10.30;;;;;;;18.17;98.64;99128.59;5073149;28;20106;-78
2022/08/27 04:34:01;;;;;;;18.08;9.25;;;;;;;18.30;99.09;99151.25;5073339;28;20077;-78
2022/08/27 04:36:26;;;;;;;13.05;9.00;;;;;;;18.27;99.65;99130.44;5088597;28;20442;-79
2022/08/27 04:38:51;;;;;;;11.23;8.68;;;;;;;18.22;99.67;99120.28;5073115;28;20021;-78
2022/08/27 04:41:20;;;;;;;16.77;8.40;;;;;;;18.28;99.91;99130.28;5070989;28;20021;-79
2022/08/27 04:43:48;;;;;;;16.48;10.48;;;;;;;18.27;100.00;99115.44;5072808;28;20037;-78
2022/08/27 04:46:13;;;;;;;19.65;11.45;;;;;;;18.37;100.00;99120.75;5073053;28;20055;-78
2022/08/27 04:48:38;;;;;;;15.43;12.13;;;;;;;18.40;100.00;99104.66;5072872;28;20029;-78
2022/08/27 04:51:04;;;;;;;17.02;12.35;;;;;;;18.55;100.00;99105.97;5072928;28;20081;-78
2022/08/27 04:53:29;;;;;;;19.98;13.18;;;;;;;18.79;100.00;99104.78;5072494;28;20021;-78
2022/08/27 04:55:56;;;;;;;19.40;12.55;;;;;;;18.93;100.00;99088.56;5072683;28;20473;-78
2022/08/27 04:58:23;;;;;;;17.20;12.32;;;;;;;19.11;100.00;99094.78;5072370;28;20407;-78
2022/08/27 05:00:52;;;;;;;18.58;12.55;;;;;;;19.34;100.00;99102.41;5072884;28;20108;-78
2022/08/27 05:03:22;;;;;;;19.05;12.50;;;;;;;19.48;100.00;99099.34;5071234;28;20028;-79
2022/08/27 05:05:48;;;;;;;20.25;13.23;;;;;;;19.69;100.00;99100.03;5072637;28;20107;-79
2022/08/27 05:08:16;;;;;;;14.93;12.82;;;;;;;19.79;100.00;99089.44;5072464;28;20059;-78
2022/08/27 05:10:43;;;;;;;20.83;14.23;;;;;;;19.96;100.00;99085.19;5072168;28;20033;-78
2022/08/27 05:13:10;;;;;;;18.50;13.32;;;;;;;20.37;100.00;99101.59;5072188;28;20045;-78
2022/08/27 05:15:37;;;;;;;17.90;13.38;;;;;;;20.70;100.00;99076.34;5072302;28;20059;-79
2022/08/27 05:18:03;;;;;;;17.33;12.43;;;;;;;21.24;99.43;99092.22;5072255;28;20028;-78
2022/08/27 05:20:30;;;;;;;17.25;12.25;;;;;;;21.66;97.35;99103.84;5072120;28;20028;-79
2022/08/27 05:22:56;;;;;;;14.82;10.70;;;;;;;22.10;94.86;99094.97;5072210;28;20035;-78
2022/08/27 05:25:22;;;;;;;17.58;11.07;;;;;;;22.77;92.01;99103.03;5071940;28;20028;-79
2022/08/27 05:27:48;;;;;;;15.65;11.43;;;;;;;23.09;89.22;99104.91;5072335;28;20028;-78
2022/08/27 05:30:13;;;;;;;16.40;11.32;;;;;;;23.23;88.50;99104.28;5072155;28;20131;-78
2022/08/27 05:32:38;;;;;;;24.27;11.38;;;;;;;23.42;87.77;99090.66;5072007;28;20161;-79
2022/08/27 05:35:05;;;;;;;15.10;10.77;;;;;;;23.79;85.88;99091.13;5071918;28;20085;-79
2022/08/27 05:37:32;;;;;;;14.68;9.40;;;;;;;24.13;84.95;99099.66;5070553;28;20398;-79
2022/08/27 05:39:59;;;;;;;12.05;10.00;;;;;;;24.84;82.50;99094.38;5072460;28;20031;-79
2022/08/27 05:42:24;;;;;;;13.63;8.77;;;;;;;26.28;77.44;99091.56;5073255;28;20035;-79
2022/08/27 05:44:50;;;;;;;11.63;8.25;;;;;;;27.43;72.18;99096.13;5073600;28;20377;-79
2022/08/27 05:47:15;;;;;;;11.93;8.18;;;;;;;27.27;70.68;99077.66;5071257;28;20020;-79
2022/08/27 05:49:40;;;;;;;11.32;8.30;;;;;;;26.88;71.74;99102.94;5072157;28;20029;-79
2022/08/27 05:52:10;;;;;;;12.23;8.48;;;;;;;26.55;72.36;99083.91;5072914;28;20070;-79
2022/08/27 05:54:36;;;;;;;12.95;7.75;;;;;;;26.53;72.92;99081.41;5070651;28;20028;-79
2022/08/27 05:57:01;;;;;;;11.43;7.63;;;;;;;27.05;71.64;99098.19;5073245;28;20025;-79
2022/08/27 06:02:11;;;;;;;12.05;7.22;;;;;;;28.48;66.17;99110.38;5072404;28;20102;-79
2022/08/27 06:04:36;;;;;;;11.20;7.60;;;;;;;28.06;67.12;99102.34;5071786;28;20083;-79
2022/08/27 06:07:02;;;;;;;12.57;7.55;;;;;;;27.68;67.47;99098.34;5071842;28;20024;-79
2022/08/27 06:09:28;;;;;;;13.75;7.65;;;;;;;27.46;68.47;99105.56;5071771;28;20020;-79
2022/08/27 06:11:55;;;;;;;9.55;7.35;;;;;;;27.39;68.31;99104.69;5072413;28;20415;-79
2022/08/27 06:14:21;;;;;;;13.63;7.90;;;;;;;28.22;66.90;99116.41;5072267;28;20043;-79
2022/08/27 06:16:47;;;;;;;13.05;7.50;;;;;;;29.14;64.28;99113.25;5071925;28;20037;-78
2022/08/27 06:19:13;;;;;;;9.55;7.60;;;;;;;29.15;64.27;99114.91;5071954;28;20093;-79
2022/08/27 06:21:40;;;;;;;10.00;6.82;;;;;;;29.17;64.35;99130.81;5071572;28;20028;-79
2022/08/27 06:24:07;;;;;;;11.30;8.02;;;;;;;29.07;64.37;99126.63;5072295;28;20374;-79
2022/08/27 06:26:32;;;;;;;13.48;7.90;;;;;;;28.96;63.38;99108.50;5071617;28;20028;-79
2022/08/27 06:29:01;;;;;;;12.60;7.70;;;;;;;29.20;63.31;99130.38;5072194;28;20081;-78
2022/08/27 06:31:27;;;;;;;12.85;8.48;;;;;;;29.32;62.66;99128.75;5071766;28;20079;-79
2022/08/27 06:33:57;;;;;;;9.30;7.32;;;;;;;29.36;62.60;99129.16;5071604;28;20056;-79
2022/08/27 06:36:24;;;;;;;10.07;7.65;;;;;;;29.46;62.39;99125.06;5070481;28;20029;-77
2022/08/27 06:38:50;;;;;;;9.75;6.93;;;;;;;29.67;61.90;99121.38;5073062;28;20028;-77
2022/08/27 06:41:19;;;;;;;10.43;6.97;;;;;;;29.82;61.55;99121.94;5071927;28;20103;-78
2022/08/27 06:43:45;;;;;;;9.37;7.03;;;;;;;29.82;60.79;99111.22;5071496;28;20092;-78
2022/08/27 06:46:14;;;;;;;9.93;6.95;;;;;;;30.08;61.21;99130.97;5087257;28;20119;-78
2022/08/27 06:48:43;;;;;;;10.20;7.25;;;;;;;30.46;60.99;99132.97;5071166;28;20106;-78
2022/08/27 06:51:15;;;;;;;8.85;6.85;;;;;;;30.75;59.76;99121.69;5071957;28;20021;-78
2022/08/27 06:53:42;;;;;;;8.82;6.75;;;;;;;31.16;59.16;99119.59;5071119;28;20400;-78
2022/08/27 06:56:10;;;;;;;11.65;6.78;;;;;;;31.59;58.08;99125.06;5071309;28;20162;-78
2022/08/27 06:58:35;;;;;;;11.90;7.10;;;;;;;32.21;56.77;99125.94;5070958;28;20032;-78
2022/08/27 07:01:01;;;;;;;10.52;6.70;;;;;;;33.06;54.27;99122.41;5071146;28;20032;-78
2022/08/27 07:03:27;;;;;;;11.40;6.90;;;;;;;33.18;53.26;99123.25;5070965;28;20036;-78
2022/08/27 07:05:52;;;;;;;11.25;6.30;;;;;;;33.96;52.35;99132.16;5073588;28;20021;-78
2022/08/27 07:08:18;;;;;;;10.20;6.70;;;;;;;35.97;49.02;99131.06;5090380;28;20511;-79
2022/08/27 07:10:43;;;;;;;14.60;6.40;;;;;;;38.46;44.64;99130.97;5074897;28;20032;-77
2022/08/27 07:13:09;;;;;;;9.65;6.18;;;;;;;40.78;40.88;99124.78;5074669;28;20065;-78
2022/08/27 07:15:37;;;;;;;8.75;6.05;;;;;;;42.77;38.12;99133.81;5073224;28;20028;-78
2022/08/27 07:18:03;;;;;;;7.10;5.35;;;;;;;44.37;35.71;99149.19;5073243;28;20025;-78
2022/08/27 07:20:28;;;;;;;8.73;6.00;;;;;;;45.64;33.09;99139.91;5074478;28;20545;-79
2022/08/27 07:22:57;;;;;;;8.50;5.80;;;;;;;46.26;31.86;99143.44;5074515;28;20449;-79
2022/08/27 07:25:23;;;;;;;;;;;;;;;47.33;31.14;99142.09;5075054;28;20131;-78
2022/08/27 07:27:48;;;;;;;10.50;5.55;;;;;;;48.10;30.03;99142.19;5074082;28;20365;-79
2022/08/27 07:30:15;;;;;;;7.75;5.60;;;;;;;48.83;29.15;99137.19;5089838;28;20174;-79
2022/08/27 07:32:44;;;;;;;9.98;5.65;;;;;;;49.49;28.12;99135.63;5074218;28;20062;-79
2022/08/27 07:35:10;;;;;;;6.45;5.07;;;;;;;50.11;28.09;99143.66;5074463;28;20036;-79
2022/08/27 07:37:37;;;;;;;9.35;5.38;;;;;;;50.08;27.36;99146.31;5074101;28;20021;-79
2022/08/27 07:40:10;;;;;;;6.32;5.35;;;;;;;50.19;27.49;99141.94;5074616;28;20033;-79
2022/08/27 07:45:20;;;;;;;9.38;4.95;;;;;;;50.72;26.92;99145.56;5074689;28;20575;-79
2022/08/27 07:47:45;;;;;;;6.90;5.03;;;;;;;50.98;27.08;99139.59;5074412;28;20058;-79
2022/08/27 07:50:11;;;;;;;5.95;5.13;;;;;;;51.00;26.52;99128.97;5074335;28;20036;-79
2022/08/27 07:52:37;;;;;;;8.98;5.30;;;;;;;51.27;26.31;99141.19;5074427;28;20381;-79
2022/08/27 07:55:03;;;;;;;8.98;5.72;;;;;;;51.02;26.10;99145.22;5074163;28;20385;-79
2022/08/27 07:57:30;;;;;;;8.23;5.40;;;;;;;50.72;26.84;99140.00;5073914;28;20115;-78
2022/08/27 07:59:55;;;;;;;6.40;5.10;;;;;;;50.90;27.02;99146.88;5074599;28;20028;-78
2022/08/27 08:02:20;;;;;;;9.13;5.55;;;;;;;51.16;26.52;99135.34;5074266;28;20390;-79
2022/08/27 08:04:46;;;;;;;9.15;5.55;;;;;;;51.30;26.21;99139.69;5073769;28;20366;-78
2022/08/27 08:07:11;;;;;;;7.85;5.03;;;;;;;51.11;26.63;99138.34;5073963;28;20378;-78
2022/08/27 08:09:37;;;;;;;9.48;4.90;;;;;;;50.61;26.87;99148.03;5073645;28;20522;-79
2022/08/27 08:12:02;;;;;;;7.65;4.95;;;;;;;49.75;27.18;99138.88;5073930;28;20028;-78
2022/08/27 08:14:30;;;;;;;8.50;4.70;;;;;;;49.13;27.63;99137.09;5073814;28;20039;-78
2022/08/27 08:17:00;;;;;;;9.23;5.70;;;;;;;46.26;29.91;99132.44;5072857;28;20035;-79
2022/08/27 08:19:26;;;;;;;6.72;4.95;;;;;;;43.04;33.43;99137.81;5073891;28;20033;-79
2022/08/27 08:21:52;;;;;;;6.82;5.45;;;;;;;40.63;35.55;99122.97;5075032;28;20017;-79
2022/08/27 08:24:17;;;;;;;11.00;5.85;;;;;;;38.83;38.49;99130.81;5075949;28;20064;-78
2022/08/27 08:26:43;;;;;;;8.27;5.75;;;;;;;37.52;40.89;99119.78;5076880;28;20388;-78
2022/08/27 08:29:09;;;;;;;8.20;6.32;;;;;;;36.43;42.44;99120.81;5077715;28;20029;-78
2022/08/27 08:31:34;;;;;;;8.80;5.47;;;;;;;35.66;44.62;99119.78;5078325;28;20135;-78
2022/08/27 08:33:59;;;;;;;8.07;5.70;;;;;;;35.26;46.57;99114.47;5077154;28;20024;-78
2022/08/27 08:36:25;;;;;;;11.00;5.80;;;;;;;34.95;47.43;99134.78;5077334;28;20028;-77
2022/08/27 08:38:50;;;;;;;10.50;6.45;;;;;;;34.48;48.83;99130.38;5076261;28;20032;-78
2022/08/27 08:41:21;;;;;;;9.50;6.63;;;;;;;33.96;49.19;99133.03;5073766;28;20028;-77
2022/08/27 08:43:50;;;;;;;10.05;6.68;;;;;;;33.37;50.56;99128.56;5075483;28;20028;-78
2022/08/27 08:46:38;;;;;;;11.93;6.85;;;;;;;33.10;51.31;99141.66;5073914;28;20158;-77
2022/08/27 08:49:47;;;;;;;10.57;7.18;;;;;;;32.69;51.53;99146.75;5073310;28;20376;-77
2022/08/27 08:52:34;;;;;;;11.00;7.13;;;;;;;31.95;52.91;99148.59;4991177;28;20184;-77
2022/08/27 08:55:22;;;;;;;12.20;7.57;;;;;;;31.65;53.75;99143.06;4991133;28;20022;-77
2022/08/27 08:58:11;;;;;;;11.68;7.32;;;;;;;31.49;55.23;99133.66;4932940;29;20072;-77
2022/08/27 09:00:38;;;;;;;9.60;6.93;;;;;;;31.50;55.22;99131.78;4933065;29;20481;-77
2022/08/27 09:03:04;;;;;;;10.15;7.15;;;;;;;31.44;55.28;99132.69;4933220;29;20122;-77
2022/08/27 09:05:29;;;;;;;13.98;7.28;;;;;;;31.36;55.50;99135.63;4933669;29;20059;-77
2022/08/27 09:08:05;;;;;;;12.10;7.35;;;;;;;31.33;55.15;99147.66;4933359;29;20044;-78
2022/08/27 09:10:51;;;;;;;14.50;8.25;;;;;;;31.09;55.90;99148.41;4933492;29;20043;-78
2022/08/27 09:13:23;;;;;;;13.43;8.05;;;;;;;30.80;56.79;99147.94;4933387;29;20555;-78
2022/08/27 09:15:53;;;;;;;12.20;8.20;;;;;;;30.58;58.09;99153.59;4933213;29;20039;-78
2022/08/27 09:18:18;;;;;;;9.63;7.60;;;;;;;30.55;58.12;99147.81;4933296;29;20039;-78
2022/08/27 09:20:48;;;;;;;12.80;7.72;;;;;;;30.59;57.82;99149.03;4932592;29;20032;-80
2022/08/27 09:23:24;;;;;;;9.68;6.97;;;;;;;30.56;58.94;99150.31;4932810;29;20036;-80
2022/08/27 09:25:49;;;;;;;9.60;6.80;;;;;;;30.45;60.19;99147.44;4932611;29;20040;-80
2022/08/27 09:31:19;;;;;;;9.80;6.70;;;;;;;30.25;60.31;99153.69;4990387;28;20057;-80
2022/08/27 09:33:45;;;;;;;9.20;6.80;;;;;;;30.28;60.81;99157.84;4993409;28;20038;-80
2022/08/27 09:36:14;;;;;;;10.32;6.68;;;;;;;30.32;61.58;99156.38;5049750;28;20049;-78
2022/08/27 09:38:50;;;;;;;7.07;6.38;;;;;;;30.47;61.45;99156.97;5049309;28;20029;-78
2022/08/27 09:41:27;;;;;;;11.10;6.93;;;;;;;30.62;61.47;99155.84;5049423;28;20037;-78
2022/08/27 09:44:00;;;;;;;10.38;7.18;;;;;;;30.67;61.10;99159.53;5049251;28;20394;-78
2022/08/27 09:46:27;;;;;;;8.43;6.57;;;;;;;30.56;61.31;99152.16;5049293;28;20064;-78
2022/08/27 09:48:53;;;;;;;8.43;6.50;;;;;;;30.60;61.02;99164.16;5032395;28;20517;-78
2022/08/27 09:51:22;;;;;;;9.70;6.35;;;;;;;30.55;60.76;99164.78;5049348;28;20045;-78
2022/08/27 09:53:58;;;;;;;7.00;5.88;;;;;;;30.47;61.05;99161.50;5049221;28;20029;-78
2022/08/27 09:56:31;;;;;;;9.93;6.10;;;;;;;30.30;61.51;99156.59;5057405;28;20036;-78
2022/08/27 09:59:02;;;;;;;8.65;6.45;;;;;;;30.20;61.76;99158.88;5071722;28;20033;-78
2022/08/27 10:01:31;;;;;;;10.57;6.40;;;;;;;30.11;61.40;99146.69;5072172;28;20032;-78
2022/08/27 10:04:13;;;;;;;9.90;6.30;;;;;;;30.12;60.94;99158.25;5071672;28;20074;-78
2022/08/27 10:06:46;;;;;;;8.57;6.05;;;;;;;30.07;61.27;99148.97;5071517;28;20079;-78
2022/08/27 10:09:16;;;;;;;7.82;5.70;;;;;;;30.07;60.10;99146.28;5071939;28;20029;-78
2022/08/27 10:11:56;;;;;;;7.70;4.88;;;;;;;30.19;58.67;99137.63;5071558;28;20035;-78
2022/08/27 10:14:33;;;;;;;10.95;5.20;;;;;;;30.48;59.34;99152.41;5071783;28;20024;-78
2022/08/27 10:17:08;;;;;;;9.88;5.55;;;;;;;30.48;58.63;99155.09;5071343;28;20082;-78
2022/08/27 10:19:46;;;;;;;7.57;5.25;;;;;;;30.48;59.14;99166.66;5071928;28;20021;-78
2022/08/27 10:22:36;;;;;;;8.15;5.68;;;;;;;30.43;59.17;99160.28;5071771;28;20040;-77
2022/08/27 10:25:19;;;;;;;7.90;5.32;;;;;;;30.31;58.97;99152.88;5072043;28;20113;-78
2022/08/27 10:28:43;;;;;;;7.47;5.03;;;;;;;30.40;58.42;99166.06;5072004;28;20115;-77
2022/08/27 10:31:31;;;;;;;9.57;4.57;;;;;;;30.53;56.97;99152.59;4990336;28;20057;-78
2022/08/27 10:34:10;;;;;;;7.00;4.85;;;;;;;30.64;56.99;99145.72;4989943;28;20034;-78
2022/08/27 10:36:38;;;;;;;6.03;4.30;;;;;;;30.66;55.79;99160.59;4990039;28;20038;-78
2022/08/27 10:39:29;;;;;;;6.07;3.35;;;;;;;30.47;52.45;99156.97;4989983;28;20272;-78
2022/08/27 10:42:16;;;;;;;5.38;3.30;;;;;;;30.41;53.84;99165.84;4935724;29;20036;-78
2022/08/27 10:44:47;;;;;;;3.92;3.00;;;;;;;30.40;53.09;99158.00;4935596;29;20123;-77
2022/08/27 10:47:24;;;;;;;3.75;2.80;;;;;;;30.33;52.50;99156.16;4935644;29;20040;-78
2022/08/27 10:50:01;;;;;;;5.35;3.70;;;;;;;30.41;53.25;99160.47;4935270;29;20045;-78
2022/08/27 10:52:54;;;;;;;5.13;4.18;;;;;;;30.33;52.88;99155.34;4935488;29;20062;-78
2022/08/27 10:55:19;;;;;;;6.30;4.35;;;;;;;30.32;53.99;99162.56;4935452;29;20039;-78
2022/08/27 10:57:59;;;;;;;6.75;4.35;;;;;;;30.18;56.30;99163.66;4935727;29;20038;-78
2022/08/27 11:00:30;;;;;;;;;;;;;;;29.99;52.89;99177.91;4936538;29;20114;-78
2022/08/27 11:03:05;;;;;;;5.45;3.55;;;;;;;29.81;54.15;99157.06;5007032;28;19920;-78
2022/08/27 11:05:38;;;;;;;5.15;3.50;;;;;;;29.85;55.18;99176.28;5012945;28;20041;-78
2022/08/27 11:08:10;;;;;;;5.65;4.20;;;;;;;29.76;56.89;99163.06;5012556;28;20034;-78
2022/08/27 11:10:40;;;;;;;7.57;4.05;;;;;;;29.62;57.91;99152.53;5013238;28;20030;-78
2022/08/27 11:13:08;;;;;;;;;;;;;;;29.62;58.25;99165.94;5012926;28;20077;-78
2022/08/27 11:15:37;;;;;;;7.03;4.70;;;;;;;29.49;58.54;99151.44;5012698;28;20390;-78
2022/08/27 11:18:30;;;;;;;8.50;4.53;;;;;;;29.35;56.49;99160.53;5026113;28;20044;-78
2022/08/27 11:21:02;;;;;;;7.80;4.50;;;;;;;29.25;57.50;99152.06;5074362;28;20036;-78
2022/08/27 11:23:45;;;;;;;6.28;4.72;;;;;;;29.21;59.91;99137.41;5075022;28;20024;-78
2022/08/27 11:26:11;;;;;;;5.80;4.10;;;;;;;29.21;59.98;99140.09;5074937;28;20024;-78
2022/08/27 11:28:43;;;;;;;9.32;5.13;;;;;;;29.24;57.41;99150.41;5074879;28;20028;-78
2022/08/27 11:31:28;;;;;;;7.85;5.05;;;;;;;29.20;59.44;99147.31;5074777;28;20044;-78
2022/08/27 11:34:10;;;;;;;7.38;4.72;;;;;;;29.24;59.89;99143.16;5074080;28;20440;-78
2022/08/27 11:37:03;;;;;;;6.30;4.63;;;;;;;29.26;59.81;99143.81;5075516;28;20078;-78
2022/08/27 11:39:37;;;;;;;6.93;4.82;;;;;;;29.19;59.59;99142.97;5075812;28;20025;-78
2022/08/27 11:42:21;;;;;;;6.97;4.55;;;;;;;29.08;60.06;99136.38;5075163;28;20037;-78
2022/08/27 11:44:51;;;;;;;8.77;4.93;;;;;;;29.10;61.41;99133.47;5074796;28;20029;-78
2022/08/27 11:47:23;;;;;;;5.18;4.40;;;;;;;29.14;61.70;99128.53;5074944;28;20036;-78